createdAt,value
2019-02-22T00:02:21.737Z,32.47
2019-02-22T00:04:53.263Z,35.57
2019-02-22T00:07:22.367Z,34.10
2019-02-22T00:09:51.467Z,37.00
2019-02-22T00:12:20.561Z,35.57
2019-02-22T00:14:50.018Z,33.97
2019-02-22T00:17:19.153Z,35.37
2019-02-22T00:19:48.715Z,36.43
2019-02-22T00:22:18.057Z,34.73
2019-02-22T00:24:47.150Z,34.13
2019-02-22T00:27:16.284Z,32.73
2019-02-22T00:29:45.447Z,32.70
2019-02-22T00:32:14.636Z,34.20
2019-02-22T00:34:44.884Z,35.87
2019-02-22T00:37:14.188Z,36.60
2019-02-22T00:39:43.364Z,37.07
2019-02-22T00:42:12.440Z,35.60
2019-02-22T00:44:41.636Z,37.40
2019-02-22T00:47:11.104Z,34.80
2019-02-22T00:49:40.240Z,36.00
2019-02-22T00:52:09.342Z,35.47
2019-02-22T00:54:38.376Z,33.03
2019-02-22T00:57:07.505Z,35.10
2019-02-22T00:59:36.606Z,33.47
2019-02-22T01:02:05.702Z,32.43
2019-02-22T01:04:34.863Z,31.67
2019-02-22T01:07:04.251Z,32.27
2019-02-22T01:09:33.408Z,35.93
2019-02-22T01:12:02.533Z,38.70
2019-02-22T01:14:32.134Z,32.73
2019-02-22T01:17:03.113Z,28.77
2019-02-22T01:19:32.517Z,26.77
2019-02-22T01:22:01.620Z,26.27
2019-02-22T01:24:32.972Z,27.00
2019-02-22T01:27:02.130Z,27.40
2019-02-22T01:29:31.617Z,35.53
2019-02-22T01:32:01.786Z,35.27
2019-02-22T01:34:30.917Z,33.97
2019-02-22T01:37:00.039Z,36.17
2019-02-22T01:39:32.283Z,35.07
2019-02-22T01:42:01.429Z,34.83
2019-02-22T01:44:30.699Z,33.67
2019-02-22T01:46:59.819Z,33.80
2019-02-22T01:49:28.947Z,31.70
2019-02-22T01:52:00.385Z,34.07
2019-02-22T01:54:29.500Z,34.77
2019-02-22T01:56:58.568Z,31.63
2019-02-22T01:59:27.691Z,23.77
2019-02-22T02:01:56.907Z,25.97
2019-02-22T02:04:27.194Z,24.10
2019-02-22T02:06:56.334Z,25.17
2019-02-22T02:09:25.536Z,22.40
2019-02-22T02:12:01.795Z,31.67
2019-02-22T02:14:31.917Z,31.60
2019-02-22T02:17:01.114Z,33.13
2019-02-22T02:19:30.255Z,29.90
2019-02-22T02:21:59.370Z,31.97
2019-02-22T02:24:29.011Z,31.93
2019-02-22T02:26:58.135Z,32.90
2019-02-22T02:29:27.304Z,30.73
2019-02-22T02:31:56.342Z,34.00
2019-02-22T02:34:25.539Z,33.67
2019-02-22T02:36:54.695Z,35.53
2019-02-22T02:39:24.813Z,25.17
2019-02-22T02:41:53.867Z,24.97
2019-02-22T02:44:26.224Z,23.30
2019-02-22T02:46:57.588Z,26.03
2019-02-22T02:49:26.719Z,24.07
2019-02-22T02:51:56.214Z,23.43
2019-02-22T02:54:25.516Z,34.37
2019-02-22T02:56:54.713Z,32.63
2019-02-22T02:59:23.809Z,36.60
2019-02-22T03:01:52.916Z,35.43
2019-02-22T03:04:22.894Z,32.80
2019-02-22T03:07:08.151Z,32.23
2019-02-22T03:09:37.677Z,31.27
2019-02-22T03:12:06.804Z,29.03
2019-02-22T03:14:35.916Z,32.20
2019-02-22T03:17:05.034Z,34.83
2019-02-22T03:19:34.106Z,34.23
2019-02-22T03:22:03.200Z,32.70
2019-02-22T03:24:32.738Z,23.50
2019-02-22T03:27:01.822Z,24.20
2019-02-22T03:29:30.946Z,21.33
2019-02-22T03:32:00.112Z,22.30
2019-02-22T03:34:29.215Z,22.27
2019-02-22T03:36:58.318Z,32.40
2019-02-22T03:39:28.596Z,31.87
2019-02-22T03:41:59.746Z,33.80
2019-02-22T03:44:28.956Z,31.27
2019-02-22T03:46:58.213Z,36.37
2019-02-22T03:49:27.336Z,36.77
2019-02-22T03:51:57.554Z,37.67
2019-02-22T03:54:26.773Z,37.37
2019-02-22T03:56:55.878Z,36.30
2019-02-22T03:59:24.997Z,37.73
2019-02-22T04:01:54.128Z,37.23
2019-02-22T04:04:23.235Z,35.77
2019-02-22T04:06:53.455Z,34.83
2019-02-22T04:09:22.655Z,36.10
2019-02-22T04:11:51.901Z,38.43
2019-02-22T04:14:22.627Z,38.93
2019-02-22T04:16:51.844Z,36.70
2019-02-22T04:19:20.969Z,38.83
2019-02-22T04:21:50.066Z,39.13
2019-02-22T04:24:24.073Z,41.03
2019-02-22T04:26:54.662Z,38.23
2019-02-22T04:29:26.797Z,41.23
2019-02-22T04:31:55.870Z,39.33
2019-02-22T04:34:25.031Z,40.40
2019-02-22T04:36:54.236Z,39.97
2019-02-22T04:39:23.294Z,31.67
2019-02-22T04:41:58.009Z,39.20
2019-02-22T04:44:23.721Z,38.97
2019-02-22T04:46:53.106Z,38.27
2019-02-22T04:49:22.221Z,37.77
2019-02-22T04:51:51.386Z,39.20
2019-02-22T04:54:20.491Z,37.17
2019-02-22T04:56:49.596Z,35.97
2019-02-22T04:59:18.707Z,40.20
2019-02-22T05:01:47.849Z,25.10
2019-02-22T05:04:16.995Z,29.00
2019-02-22T05:06:46.090Z,26.53
2019-02-22T05:09:15.291Z,28.07
2019-02-22T05:11:44.446Z,27.40
2019-02-22T05:14:14.192Z,24.60
2019-02-22T05:16:43.319Z,32.93
2019-02-22T05:19:12.416Z,36.10
2019-02-22T05:21:41.600Z,37.20
2019-02-22T05:24:11.241Z,39.03
2019-02-22T05:26:40.335Z,41.73
2019-02-22T05:29:09.455Z,41.37
2019-02-22T05:31:38.689Z,46.57
2019-02-22T05:34:07.804Z,48.50
2019-02-22T05:36:36.941Z,48.60
2019-02-22T05:39:18.054Z,46.37
2019-02-22T05:41:39.914Z,46.83
2019-02-22T05:44:09.123Z,42.20
2019-02-22T05:46:38.252Z,35.97
2019-02-22T05:49:07.380Z,30.10
2019-02-22T05:51:36.602Z,33.40
2019-02-22T05:54:06.574Z,32.50
2019-02-22T05:56:35.749Z,32.03
2019-02-22T05:59:04.858Z,31.10
2019-02-22T06:01:33.996Z,38.67
2019-02-22T06:04:03.113Z,39.63
2019-02-22T06:06:32.294Z,47.67
2019-02-22T06:09:02.903Z,45.13
2019-02-22T06:11:33.356Z,43.47
2019-02-22T06:14:02.524Z,47.33
2019-02-22T06:16:31.730Z,46.43
2019-02-22T06:19:00.804Z,51.03
2019-02-22T06:21:30.215Z,47.93
2019-02-22T06:23:59.284Z,46.30
2019-02-22T06:26:30.399Z,48.53
2019-02-22T06:28:59.219Z,49.93
2019-02-22T06:31:29.197Z,33.90
2019-02-22T06:33:59.181Z,32.30
2019-02-22T06:36:28.865Z,36.33
2019-02-22T06:38:58.139Z,33.97
2019-02-22T06:41:27.243Z,31.63
2019-02-22T06:43:56.378Z,37.67
2019-02-22T06:46:25.545Z,32.60
2019-02-22T06:48:54.567Z,43.33
2019-02-22T06:51:24.799Z,45.53
2019-02-22T06:53:55.382Z,44.30
2019-02-22T06:56:24.477Z,50.73
2019-02-22T06:58:55.629Z,44.90
2019-02-22T07:01:29.262Z,48.13
2019-02-22T07:03:58.386Z,47.40
2019-02-22T07:06:27.565Z,49.97
2019-02-22T07:08:56.982Z,46.03
2019-02-22T07:11:51.172Z,47.67
2019-02-22T07:14:20.348Z,53.13
2019-02-22T07:16:49.486Z,50.67
2019-02-22T07:19:20.404Z,48.97
2019-02-22T07:21:52.949Z,46.63
2019-02-22T07:24:20.346Z,46.23
2019-02-22T07:26:49.524Z,48.73
2019-02-22T07:29:18.740Z,48.13
2019-02-22T07:31:48.073Z,46.47
2019-02-22T07:34:17.388Z,47.00
2019-02-22T07:36:46.511Z,47.40
2019-02-22T07:39:26.977Z,42.90
2019-02-22T07:41:46.799Z,44.20
2019-02-22T07:44:15.979Z,44.93
2019-02-22T07:46:45.375Z,43.67
2019-02-22T07:49:25.340Z,44.63
2019-02-22T07:51:54.507Z,45.73
2019-02-22T07:54:23.810Z,43.80
2019-02-22T07:56:52.988Z,34.87
2019-02-22T07:59:22.190Z,34.30
2019-02-22T08:01:51.321Z,33.47
2019-02-22T08:04:20.479Z,33.03
2019-02-22T08:06:49.592Z,33.03
2019-02-22T08:09:21.353Z,31.83
2019-02-22T08:11:50.448Z,42.03
2019-02-22T08:14:21.612Z,42.30
2019-02-22T08:16:50.825Z,39.67
2019-02-22T08:19:24.165Z,39.63
2019-02-22T08:21:53.325Z,38.53
2019-02-22T08:24:26.071Z,40.07
2019-02-22T08:26:55.357Z,39.97
2019-02-22T08:29:24.470Z,42.10
2019-02-22T08:31:53.616Z,38.53
2019-02-22T08:34:22.842Z,36.53
2019-02-22T08:36:52.058Z,36.20
2019-02-22T08:39:21.372Z,28.60
2019-02-22T08:41:52.558Z,28.13
2019-02-22T08:44:21.854Z,29.50
2019-02-22T08:46:50.979Z,28.43
2019-02-22T08:49:22.360Z,26.30
2019-02-22T08:51:51.515Z,29.67
2019-02-22T08:54:20.802Z,29.37
2019-02-22T08:56:49.943Z,29.20
2019-02-22T08:59:19.092Z,29.17
2019-02-22T09:01:48.286Z,29.73
2019-02-22T09:04:17.449Z,30.47
2019-02-22T09:06:46.551Z,28.73
2019-02-22T09:09:15.856Z,28.90
2019-02-22T09:11:45.135Z,28.83
2019-02-22T09:14:14.367Z,24.53
2019-02-22T09:16:43.576Z,23.50
2019-02-22T09:19:12.731Z,24.70
2019-02-22T09:21:41.854Z,26.87
2019-02-22T09:24:10.899Z,25.63
2019-02-22T09:26:39.987Z,25.97
2019-02-22T09:29:09.088Z,27.07
2019-02-22T09:31:38.203Z,24.80
2019-02-22T09:34:07.337Z,21.10
2019-02-22T09:36:36.467Z,23.37
2019-02-22T09:39:06.529Z,22.53
2019-02-22T09:41:35.720Z,23.47
2019-02-22T09:44:04.861Z,22.43
2019-02-22T09:46:33.898Z,22.63
2019-02-22T09:49:03.292Z,21.80
2019-02-22T09:51:32.345Z,21.33
2019-02-22T09:54:01.520Z,21.30
2019-02-22T09:56:30.662Z,22.23
2019-02-22T09:59:01.578Z,22.23
2019-02-22T10:01:30.740Z,22.60
2019-02-22T10:04:02.179Z,22.90
2019-02-22T10:06:32.517Z,22.70
2019-02-22T10:09:03.962Z,20.30
2019-02-22T10:11:32.560Z,18.83
2019-02-22T10:14:06.638Z,19.10
2019-02-22T10:16:34.219Z,19.30
2019-02-22T10:19:03.399Z,18.40
2019-02-22T10:21:32.519Z,18.77
2019-02-22T10:24:01.681Z,18.17
2019-02-22T10:26:30.787Z,23.10
2019-02-22T10:28:59.819Z,24.23
2019-02-22T10:31:28.975Z,24.67
2019-02-22T10:33:58.140Z,25.93
2019-02-22T10:36:27.290Z,25.30
2019-02-22T10:38:56.327Z,24.43
2019-02-22T10:41:25.444Z,25.30
2019-02-22T10:43:54.703Z,23.43
2019-02-22T10:46:24.571Z,21.13
2019-02-22T10:48:54.657Z,21.13
2019-02-22T10:51:26.693Z,19.10
2019-02-22T10:53:55.846Z,20.13
2019-02-22T10:56:24.890Z,21.13
2019-02-22T10:58:54.356Z,19.20
2019-02-22T11:01:26.262Z,21.63
2019-02-22T11:03:55.362Z,22.10
2019-02-22T11:06:24.494Z,23.57
2019-02-22T11:08:54.669Z,22.60
2019-02-22T11:11:23.791Z,22.07
2019-02-22T11:13:52.893Z,22.83
2019-02-22T11:16:23.150Z,22.90
2019-02-22T11:18:52.268Z,20.73
2019-02-22T11:21:21.386Z,20.07
2019-02-22T11:23:50.637Z,20.40
2019-02-22T11:26:24.257Z,20.13
2019-02-22T11:28:53.083Z,19.10
2019-02-22T11:31:26.155Z,19.80
2019-02-22T11:33:55.291Z,20.37
2019-02-22T11:36:25.083Z,21.27
2019-02-22T11:38:54.299Z,23.30
2019-02-22T11:41:23.467Z,22.97
2019-02-22T11:43:54.966Z,23.50
2019-02-22T11:46:24.168Z,20.37
2019-02-22T11:48:53.915Z,21.40
2019-02-22T11:51:23.306Z,21.37
2019-02-22T11:53:55.003Z,21.03
2019-02-22T11:56:24.594Z,21.37
2019-02-22T11:58:53.723Z,21.10
2019-02-22T12:01:22.903Z,20.23
2019-02-22T12:03:52.103Z,21.87
2019-02-22T12:06:21.282Z,21.13
2019-02-22T12:08:50.758Z,20.87
2019-02-22T12:11:19.971Z,20.23
2019-02-22T12:13:49.096Z,22.33
2019-02-22T12:16:18.872Z,20.57
2019-02-22T12:18:48.162Z,21.23
2019-02-22T12:21:17.656Z,23.57
2019-02-22T12:23:47.131Z,25.27
2019-02-22T12:26:16.379Z,26.30
2019-02-22T12:28:45.602Z,26.87
2019-02-22T12:31:14.951Z,26.63
2019-02-22T12:33:44.156Z,24.53
2019-02-22T12:36:13.346Z,23.07
2019-02-22T12:38:42.649Z,23.30
2019-02-22T12:41:11.899Z,23.60
2019-02-22T12:43:41.043Z,24.17
2019-02-22T12:46:10.242Z,23.47
2019-02-22T12:48:39.460Z,23.00
2019-02-22T12:51:08.633Z,22.83
2019-02-22T12:53:37.827Z,23.90
2019-02-22T12:56:06.988Z,29.77
2019-02-22T12:58:36.125Z,30.80
2019-02-22T13:01:05.251Z,30.37
2019-02-22T13:03:34.499Z,30.87
2019-02-22T13:06:03.788Z,25.53
2019-02-22T13:08:33.972Z,25.90
2019-02-22T13:11:03.117Z,26.10
2019-02-22T13:13:32.244Z,26.73
2019-02-22T13:16:01.722Z,26.00
2019-02-22T13:18:31.888Z,27.37
2019-02-22T13:21:03.525Z,26.23
2019-02-22T13:23:32.685Z,25.83
2019-02-22T13:26:01.919Z,25.00
2019-02-22T13:28:31.202Z,24.97
2019-02-22T13:31:00.420Z,25.37
2019-02-22T13:33:30.974Z,22.50
2019-02-22T13:36:05.104Z,24.83
2019-02-22T13:38:41.291Z,23.77
2019-02-22T13:41:12.600Z,28.17
2019-02-22T13:43:41.857Z,29.47
2019-02-22T13:46:11.014Z,25.63
2019-02-22T13:48:41.859Z,25.97
2019-02-22T13:51:11.231Z,25.77
2019-02-22T13:53:40.547Z,26.07
2019-02-22T13:56:10.033Z,26.33
2019-02-22T13:58:40.345Z,25.83
2019-02-22T14:01:09.824Z,24.33
2019-02-22T14:03:39.070Z,29.40
2019-02-22T14:06:08.209Z,29.67
2019-02-22T14:08:37.355Z,25.43
2019-02-22T14:11:06.529Z,25.57
2019-02-22T14:13:35.671Z,29.17
2019-02-22T14:16:04.831Z,30.07
2019-02-22T14:18:34.033Z,25.60
2019-02-22T14:21:03.753Z,26.17
2019-02-22T14:23:32.977Z,24.67
2019-02-22T14:26:02.187Z,24.93
2019-02-22T14:28:31.241Z,24.70
2019-02-22T14:31:00.427Z,25.33
2019-02-22T14:33:29.582Z,24.93
2019-02-22T14:35:58.719Z,28.63
2019-02-22T14:38:27.873Z,28.87
2019-02-22T14:40:57.128Z,25.63
2019-02-22T14:43:26.342Z,25.57
2019-02-22T14:45:55.574Z,24.03
2019-02-22T14:48:24.816Z,25.80
2019-02-22T14:50:54.048Z,25.90
2019-02-22T14:53:23.226Z,25.77
2019-02-22T14:55:52.361Z,30.37
2019-02-22T14:58:21.504Z,30.97
2019-02-22T15:00:50.750Z,25.60
2019-02-22T15:03:20.684Z,26.77
2019-02-22T15:05:49.902Z,26.60
2019-02-22T15:08:19.102Z,33.20
2019-02-22T15:10:48.332Z,34.87
2019-02-22T15:13:17.503Z,34.80
2019-02-22T15:16:00.945Z,30.10
2019-02-22T15:18:26.839Z,30.07
2019-02-22T15:20:56.041Z,30.47
2019-02-22T15:23:25.234Z,31.53
2019-02-22T15:25:54.371Z,31.43
2019-02-22T15:28:23.485Z,31.53
2019-02-22T15:30:52.740Z,34.80
2019-02-22T15:33:21.963Z,32.17
2019-02-22T15:35:51.121Z,37.83
2019-02-22T15:38:20.300Z,37.30
2019-02-22T15:40:49.456Z,31.60
2019-02-22T15:43:18.700Z,32.73
2019-02-22T15:45:47.955Z,32.10
2019-02-22T15:48:17.085Z,31.53
2019-02-22T15:50:46.179Z,31.10
2019-02-22T15:53:18.020Z,31.63
2019-02-22T15:55:47.113Z,32.57
2019-02-22T15:58:16.318Z,40.60
2019-02-22T16:00:45.534Z,41.47
2019-02-22T16:03:14.783Z,29.13
2019-02-22T16:05:45.110Z,25.57
2019-02-22T16:08:15.270Z,26.80
2019-02-22T16:10:44.374Z,33.30
2019-02-22T16:13:16.869Z,35.80
2019-02-22T16:15:47.832Z,34.90
2019-02-22T16:18:18.167Z,22.37
2019-02-22T16:20:47.724Z,20.70
2019-02-22T16:23:18.568Z,22.70
2019-02-22T16:25:47.719Z,23.63
2019-02-22T16:28:16.840Z,23.73
2019-02-22T16:30:45.978Z,22.73
2019-02-22T16:33:23.672Z,22.77
2019-02-22T16:35:54.604Z,18.03
2019-02-22T16:38:24.435Z,17.87
2019-02-22T16:40:53.523Z,18.67
2019-02-22T16:43:24.633Z,18.27
2019-02-22T16:45:53.671Z,23.50
2019-02-22T16:48:24.811Z,28.00
2019-02-22T16:50:55.295Z,28.30
2019-02-22T16:53:24.466Z,28.97
2019-02-22T16:55:54.208Z,28.73
2019-02-22T16:58:23.551Z,25.90
2019-02-22T17:00:52.951Z,24.90
2019-02-22T17:03:23.595Z,23.20
2019-02-22T17:05:53.835Z,23.13
2019-02-22T17:08:23.477Z,23.27
2019-02-22T17:10:54.323Z,27.47
2019-02-22T17:13:24.025Z,29.27
2019-02-22T17:15:53.122Z,27.87
2019-02-22T17:18:23.524Z,27.33
2019-02-22T17:20:52.986Z,28.73
2019-02-22T17:23:23.901Z,24.43
2019-02-22T17:25:53.044Z,23.50
2019-02-22T17:28:22.540Z,22.90
2019-02-22T17:30:51.650Z,22.87
2019-02-22T17:33:23.014Z,22.07
2019-02-22T17:35:54.191Z,26.30
2019-02-22T17:38:25.456Z,25.17
2019-02-22T17:40:54.664Z,30.03
2019-02-22T17:43:24.477Z,30.80
2019-02-22T17:45:54.811Z,30.47
2019-02-22T17:48:23.986Z,30.77
2019-02-22T17:50:53.109Z,27.33
2019-02-22T17:53:22.281Z,25.60
2019-02-22T17:55:51.705Z,25.50
2019-02-22T17:58:24.368Z,24.40
2019-02-22T18:00:51.916Z,24.67
2019-02-22T18:03:21.063Z,24.63
2019-02-22T18:05:50.814Z,24.87
2019-02-22T18:08:20.044Z,25.13
2019-02-22T18:10:49.216Z,29.83
2019-02-22T18:13:18.592Z,30.33
2019-02-22T18:15:47.929Z,30.00
2019-02-22T18:18:17.138Z,30.57
2019-02-22T18:20:46.330Z,27.50
2019-02-22T18:23:15.610Z,23.57
2019-02-22T18:25:44.730Z,21.50
2019-02-22T18:28:13.852Z,22.07
2019-02-22T18:30:43.048Z,20.20
2019-02-22T18:33:12.218Z,19.33
2019-02-22T18:35:41.400Z,18.50
2019-02-22T18:38:10.550Z,16.57
2019-02-22T18:40:39.624Z,14.93
2019-02-22T18:43:08.679Z,15.17
2019-02-22T18:45:37.849Z,16.87
2019-02-22T18:48:07.092Z,19.23
2019-02-22T18:50:36.248Z,20.53
2019-02-22T18:53:05.480Z,20.90
2019-02-22T18:55:34.677Z,20.70
2019-02-22T18:58:03.806Z,19.07
2019-02-22T19:00:32.890Z,15.47
2019-02-22T19:03:02.063Z,15.73
2019-02-22T19:05:31.231Z,14.30
2019-02-22T19:08:00.404Z,14.67
2019-02-22T19:10:29.574Z,14.87
2019-02-22T19:12:58.762Z,14.27
2019-02-22T19:15:28.029Z,13.30
2019-02-22T19:17:57.265Z,15.17
2019-02-22T19:20:26.396Z,17.73
2019-02-22T19:22:55.523Z,16.67
2019-02-22T19:25:24.653Z,17.13
2019-02-22T19:27:53.769Z,17.43
2019-02-22T19:30:23.005Z,16.43
2019-02-22T19:32:52.206Z,15.47
2019-02-22T19:35:21.375Z,15.53
2019-02-22T19:37:50.547Z,15.80
2019-02-22T19:40:21.043Z,15.40
2019-02-22T19:42:50.359Z,15.40
2019-02-22T19:45:19.733Z,16.13
2019-02-22T19:47:48.938Z,15.93
2019-02-22T19:50:18.224Z,15.97
2019-02-22T19:52:47.417Z,22.07
2019-02-22T19:55:16.866Z,21.70
2019-02-22T19:57:46.020Z,22.40
2019-02-22T20:00:16.200Z,23.70
2019-02-22T20:02:45.332Z,23.57
2019-02-22T20:05:15.814Z,18.17
2019-02-22T20:07:45.130Z,19.80
2019-02-22T20:10:18.320Z,18.97
2019-02-22T20:12:46.019Z,19.03
2019-02-22T20:15:15.759Z,20.83
2019-02-22T20:17:53.047Z,24.37
2019-02-22T20:20:16.075Z,23.87
2019-02-22T20:22:45.261Z,23.20
2019-02-22T20:25:14.731Z,33.23
2019-02-22T20:27:43.981Z,35.67
2019-02-22T20:30:14.542Z,35.10
2019-02-22T20:32:44.058Z,34.50
2019-02-22T20:35:15.481Z,35.97
2019-02-22T20:37:52.560Z,28.83
2019-02-22T20:40:15.557Z,28.67
2019-02-22T20:42:44.767Z,30.70
2019-02-22T20:45:14.032Z,28.87
2019-02-22T20:47:43.219Z,30.10
2019-02-22T20:50:12.375Z,28.43
2019-02-22T20:52:41.602Z,29.27
2019-02-22T20:55:10.895Z,29.33
2019-02-22T20:57:40.071Z,39.00
2019-02-22T21:00:11.905Z,39.17
2019-02-22T21:02:41.123Z,39.27
2019-02-22T21:05:11.182Z,38.63
2019-02-22T21:07:40.433Z,39.90
2019-02-22T21:10:12.030Z,30.63
2019-02-22T21:12:41.182Z,29.50
2019-02-22T21:15:11.337Z,30.17
2019-02-22T21:17:40.970Z,30.50
2019-02-22T21:20:11.027Z,30.30
2019-02-22T21:22:40.279Z,28.40
2019-02-22T21:25:10.072Z,29.30
2019-02-22T21:27:39.275Z,29.67
2019-02-22T21:30:10.022Z,42.47
2019-02-22T21:32:42.339Z,42.40
2019-02-22T21:35:11.533Z,41.30
2019-02-22T21:37:41.465Z,41.87
2019-02-22T21:40:10.675Z,44.07
2019-02-22T21:42:39.840Z,41.80
2019-02-22T21:45:11.063Z,43.60
2019-02-22T21:47:40.303Z,43.47
2019-02-22T21:50:11.409Z,43.53
2019-02-22T21:52:41.365Z,32.97
2019-02-22T21:55:11.355Z,33.03
2019-02-22T21:57:41.616Z,32.00
2019-02-22T22:00:16.119Z,31.43
2019-02-22T22:02:50.347Z,31.30
2019-02-22T22:05:19.510Z,46.33
2019-02-22T22:07:48.658Z,45.60
2019-02-22T22:10:18.859Z,45.77
2019-02-22T22:12:48.308Z,44.07
2019-02-22T22:15:18.528Z,45.73
2019-02-22T22:17:47.686Z,46.27
2019-02-22T22:20:16.813Z,45.20
2019-02-22T22:22:46.069Z,45.23
2019-02-22T22:25:15.410Z,45.97
2019-02-22T22:27:45.030Z,45.67
2019-02-22T22:30:14.159Z,45.00
2019-02-22T22:32:45.848Z,44.63
2019-02-22T22:35:17.344Z,44.60
2019-02-22T22:37:46.757Z,45.03
2019-02-22T22:40:19.163Z,45.17
2019-02-22T22:42:51.383Z,45.83
2019-02-22T22:45:26.116Z,45.07
2019-02-22T22:50:47.391Z,45.50
2019-02-22T22:53:18.801Z,44.50
2019-02-22T22:55:47.945Z,48.37
2019-02-22T22:58:18.429Z,45.50
2019-02-22T23:01:09.818Z,45.37
2019-02-22T23:03:41.145Z,34.80
2019-02-22T23:06:14.543Z,33.87
2019-02-22T23:08:43.657Z,31.97
2019-02-22T23:11:13.043Z,30.97
2019-02-22T23:13:42.188Z,31.07
2019-02-22T23:16:12.565Z,31.00
2019-02-22T23:18:41.676Z,43.00
2019-02-22T23:21:10.816Z,47.00
2019-02-22T23:23:39.949Z,45.13
2019-02-22T23:26:09.170Z,45.70
2019-02-22T23:28:38.322Z,46.50
2019-02-22T23:31:07.473Z,45.13
2019-02-22T23:33:36.622Z,45.47
2019-02-22T23:36:05.844Z,34.83
2019-02-22T23:38:34.978Z,33.83
2019-02-22T23:41:04.056Z,32.90
2019-02-22T23:44:00.540Z,32.03
2019-02-22T23:46:31.134Z,32.90
2019-02-22T23:49:00.542Z,32.53
2019-02-22T23:51:29.787Z,45.50
2019-02-22T23:53:58.996Z,46.93
2019-02-22T23:56:28.380Z,46.30
2019-02-22T23:58:57.726Z,46.20
